Unbenanntes Dokument
Flugplatz Bielefeld Platzwetter

 

Aktuelles Platzwetter am Flugplatz Bielefeld EDLI

20.04.18 ,12:25 Uhr

METAR EDLI 201224Z 29006KT 2700 27/07 Q1023

 

Windwerte

 

Wolkenuntergrenzen

Wind aktuell:320 ° mit 7 kt
Wind 10 min Extrem:
230 ° bis 330 ° mit 2 kt bis 11 kt
Seitenwindkomponente: -2.2 kt
Wolkengrenze 1:
Wolkengrenze 2:
Wolkengrenze 3:

Webcam

Temperatur

       

Sichtweite:

1.200 Meter

27.4 °C
Taupunkt: 7.9 °C
Luftfeuchtigkeit: 29 %

Luftdruck:

QNH: 1023 hPa (30.21 in Hg)
QFE: 1007 hPa (29.74 in Hg)

Diese Daten werden automatisch ermittelt bzw. übertragen und sind nicht geprüft. Für die Richtigkeit wird daher keine Gewähr übernommen. Sie ersetzen im übrigen nicht die Flugwetterberatung. Alle Zeitangaben beziehen sich auf UTC. Die Seite wird einmal die Minute aktualisiert! Sollten Sie ein ältere Seite haben, so drücken Sie bitte auf den Reload Button Ihres Browsers!